Airfield :
LOGIN :

Register | Disclaimer

   EN    FR    IT 

 










Legend :    VFR   Marginal VFR   IFR   Intensive IFR   Very Intensive IFR
Visi :
Ceiling :
>= 8 km
>= 3000ft
5 to 8 km
1000 to 3000 ft
1500m to 5 km
500 to 1000 ft
800 to 1500m
200 to 500 ft
< 800m
< 200 ft
Symbols :   Thunderstorms  Fog  Heavy snow  Heavy precipitations  Wind > 20 kt
SIGMETs :     Misc.  Thunderstorms  Icing  Turbulence  Mountain Waves  Volcanic Ashes






- Airport Elevation : 265 ft
- IATA code : BJY


LYBT - Batajnica Air Base

CURRENT METAR :
  • 261400Z 11011KT 060V140 CAVOK 26/08 Q1017 NOSIG

EXPIRED METARs :
  • 261330Z 10010KT 040V140 CAVOK 26/07 Q1017 NOSIG
  • 261300Z 10011KT 060V140 CAVOK 26/08 Q1017 NOSIG
  • 261230Z 10012KT 060V120 9999 FEW040 26/09 Q1017 NOSIG
  • 261200Z 11009KT 050V140 9999 FEW033 26/11 Q1017 NOSIG
  • 261130Z 11007KT 030V160 9999 FEW033 25/12 Q1018 NOSIG
  • 261100Z 11010KT 070V150 CAVOK 25/12 Q1018 NOSIG
  • 261030Z 12008KT 080V160 CAVOK 25/12 Q1018 NOSIG
  • 261000Z 12008KT 070V150 CAVOK 24/13 Q1018 NOSIG

TAF TAF LYBT
Valid from the 26 at 12:00 until the 27 at 12:00 UTC


261100Z 2612/2712 13008KT CAVOK TX27/2712Z TN10/2703Z



MET'MAP, your aeronautical weather chart ! - Copyright ORBIFLY December 2007 - Disclaimer

ORBIFLY MET'MAP TEAM :

Programming & Development : Alexandra Zaïnal
Original concept : Baudouin d'Aumeries
Technical & hardware support : Manuel Goepfert
Assistance : Marc-Olivier Méhu




SOURCES & CREDITS :

   NOAA